Webcam Richtung Westen

Webcam27

Webcam Richtung Norden

Webcam36

Webcam Richtung Osten

Webcam09

Wetter(Würzburg):
262200Z AUTO 19003G04KT 70KM ////// 08/01 Q1019
		
Fri 27.04.2018, 22:00 UTC

Sichtweite bis zu 70 km
Wind aus 190° mit 03kt, in Böen bis zu 04kt

Temperatur: 8 °C
Taupunkt: 1 °C
QNH: 1019 hPa
                         Heute        Morgen
                         27.04        28.04
--------------------------------------------
Beginn der Dämmerung     03:29        03:27
Sonnenaufgang            04:05        04:03
Sonnenuntergang          18:31        18:32
Ende der Dämmerung       19:06        19:08

Alle Zeiten in UTC